Monroe, LA (71203)

5:17 PM CST on February 08, 2016 (GMT -0600)
Swartz | | Change Station
CLOSE
Current Station
Personal Weather Station
Location: Monroe, LA
Elevation: 98 ft
Nearby Weather Stations
Active Advisory: Lake Wind Advisory

Elev 98 ft 32.56 °N, 92.02 °W | Updated 30 seconds ago

Mostly Cloudy
Mostly Cloudy
52.5 °F
Feels Like 52.5 °F
N
10.5
Wind Variable Wind from WNW
Gusts 12.3 mph

Today
High -- | Low -- °F
--% Chance of Precip.
Yesterday
High -- | Low -- °F
Precip. -- in
Pressure 30.05 in
Visibility 10.0 miles
Clouds Mostly Cloudy 10000 ft
Dew Point 14 °F
Humidity 21%
Rainfall 0.00 in
Snow Depth Not available.
6:57 AM 5:47 PM
New Moon, 0% visible
METAR KMLU 082253Z 30017G28KT 10SM BKN100 11/M08 A3005 RMK AO2 PK WND 27032/2219 SLP176 T01111083
Pressure 30.05 in
Visibility 10.0 miles
Clouds Mostly Cloudy 10000 ft
Dew Point 14 °F
Humidity 21%
Rainfall 0.00 in
Snow Depth Not available.
6:57 AM 5:47 PM
New Moon, 0% visible
METAR KMLU 082253Z 30017G28KT 10SM BKN100 11/M08 A3005 RMK AO2 PK WND 27032/2219 SLP176 T01111083

10-Day Weather Forecast

Almanac

Astronomy

Feb. 08, 2016 Rise Set
Actual Time
Civil Twilight
Nautical Twilight
Astronomical Twilight
Moon
Length of Visible Light
Length of Day
Tomorrow will be .
, % of the Moon is Illuminated

Today's Extremes

State Highs State Lows

Community

WunderPhotos

Upload Photos

1,891,525 photos uploaded!

WunderBlog® & News

Nearby

Air Quality

  Air Quality AQ Index Pollutant
Not available.

Snow Depth

Station Depth Elevation

Earthquake Activity

City Distance Mag. Time & Date
Minimum magnitude displayed is 2.5.

Coastal Water Temperatures

Place Temperature

Stations

Nearby Weather Stations

Station Location Temp. Windchill Dew Point Humidity Wind Precip. Elev Updated Type
                   

Watches & Warnings

Lake Wind Advisory
Issued: 3:11 PM CST Feb. 8, 2016 – National Weather Service

... Lake Wind Advisory remains in effect until 6 PM CST this
evening...

* event... northwest winds of to 20 to 30 mph with gusts as high as
40 mph are ongoing due to a very tight pressure gradient
present across the region.

* Timing... through 6 PM CST today.

* Impact... boaters should exercise caution on area lakes due to
rough conditions.

Precautionary/preparedness actions...

A lake Wind Advisory indicates that winds will cause rough chop
on area lakes. Small boats will be especially prone to capsizing.



12